Time;durP1;ratioP1;P1;durP2;ratioP2;P2;SDS_P1;SDS_P2;PMS_P1;PMS_P2;Temp;Humidity;BMP_temperature;BMP_pressure;BME280_temperature;BME280_humidity;BME280_pressure;Samples;Min_cycle;Max_cycle;Signal;HPM_P1;HPM_P2
2023/08/16 00:01:19;;;;;;;6.10;4.45;;;;;;;22.04;100.00;101092.47;5025011;28;20076;-65
2023/08/16 00:03:47;;;;;;;7.57;5.53;;;;;;;22.05;100.00;101082.56;5033702;28;20063;-65
2023/08/16 00:06:15;;;;;;;4.72;4.07;;;;;;;22.00;100.00;101078.53;4993315;28;20126;-65
2023/08/16 00:08:42;;;;;;;8.77;5.05;;;;;;;22.00;100.00;101083.88;5013532;28;20048;-64
2023/08/16 00:11:10;;;;;;;4.20;3.63;;;;;;;21.98;100.00;101090.41;5008333;28;20478;-66
2023/08/16 00:13:37;;;;;;;4.35;3.70;;;;;;;21.97;100.00;101094.94;5008552;28;20073;-64
2023/08/16 00:16:06;;;;;;;6.97;4.43;;;;;;;21.95;100.00;101104.94;5007911;28;20060;-65
2023/08/16 00:18:33;;;;;;;4.32;3.92;;;;;;;21.94;100.00;101121.19;4999178;28;20631;-67
2023/08/16 00:21:01;;;;;;;4.60;3.67;;;;;;;21.94;100.00;101142.63;4995425;28;20136;-66
2023/08/16 00:23:28;;;;;;;6.72;4.20;;;;;;;21.88;100.00;101154.78;5013624;28;20662;-66
2023/08/16 00:25:56;;;;;;;5.40;4.40;;;;;;;21.87;100.00;101144.22;5032790;28;20057;-67
2023/08/16 00:28:24;;;;;;;8.23;4.88;;;;;;;21.87;100.00;101146.91;5026368;28;20107;-68
2023/08/16 00:30:53;;;;;;;4.97;4.22;;;;;;;21.86;100.00;101138.03;5002248;28;20132;-66
2023/08/16 00:33:21;;;;;;;5.72;4.10;;;;;;;21.84;100.00;101123.06;5009055;28;20132;-66
2023/08/16 00:35:51;;;;;;;8.70;4.00;;;;;;;21.85;100.00;101112.22;5024760;28;20050;-66
2023/08/16 00:38:19;;;;;;;5.97;4.53;;;;;;;21.85;100.00;101112.22;5016222;28;20080;-66
2023/08/16 00:40:50;;;;;;;6.10;4.28;;;;;;;21.87;100.00;101128.16;5012019;28;20068;-66
2023/08/16 00:43:17;;;;;;;6.00;4.10;;;;;;;21.84;100.00;101131.13;5016454;28;20080;-65
2023/08/16 00:45:46;;;;;;;8.77;4.45;;;;;;;21.78;100.00;101145.97;4997776;28;20069;-68
2023/08/16 00:48:13;;;;;;;5.00;4.03;;;;;;;21.77;100.00;101146.13;5012379;28;20091;-66
2023/08/16 00:50:41;;;;;;;5.13;4.13;;;;;;;21.72;100.00;101136.69;5014064;28;20099;-66
2023/08/16 00:53:09;;;;;;;4.47;3.70;;;;;;;21.72;100.00;101133.19;5008407;28;21060;-69
2023/08/16 00:55:37;;;;;;;6.00;4.28;;;;;;;21.69;100.00;101120.91;5013647;28;20081;-66
2023/08/16 00:58:04;;;;;;;7.90;4.43;;;;;;;21.70;100.00;101119.94;5009625;28;20175;-66
2023/08/16 01:00:32;;;;;;;6.20;3.97;;;;;;;21.69;100.00;101120.06;5023198;28;20061;-66
2023/08/16 01:02:59;;;;;;;5.50;3.95;;;;;;;21.68;100.00;101116.56;5013517;28;20064;-67
2023/08/16 01:05:27;;;;;;;7.50;5.65;;;;;;;21.69;100.00;101114.72;5012337;28;20133;-68
2023/08/16 01:07:54;;;;;;;7.47;4.45;;;;;;;21.67;100.00;101114.03;5011143;28;20392;-69
2023/08/16 01:10:32;;;;;;;9.50;5.38;;;;;;;21.66;100.00;101117.69;5011327;28;20127;-70
2023/08/16 01:13:08;;;;;;;6.47;5.10;;;;;;;21.63;100.00;101118.84;5011738;28;20053;-68
2023/08/16 01:15:38;;;;;;;5.72;4.70;;;;;;;21.62;100.00;101117.16;5001619;28;20045;-68
2023/08/16 01:18:06;;;;;;;9.05;5.20;;;;;;;21.64;100.00;101120.53;5011411;28;20077;-67
2023/08/16 01:20:35;;;;;;;6.95;5.45;;;;;;;21.64;100.00;101112.50;5017107;28;20107;-69
2023/08/16 01:23:31;;;;;;;5.97;4.63;;;;;;;21.64;100.00;101107.13;5016418;28;20056;-69
2023/08/16 01:26:04;;;;;;;9.95;5.10;;;;;;;21.65;100.00;101092.72;4999920;28;20049;-67
2023/08/16 01:28:35;;;;;;;7.65;4.90;;;;;;;21.65;100.00;101097.25;5028042;28;20115;-68
2023/08/16 01:31:03;;;;;;;6.68;4.50;;;;;;;21.65;100.00;101105.28;5028005;28;20069;-68
2023/08/16 01:33:31;;;;;;;9.43;5.32;;;;;;;21.63;100.00;101108.13;4994553;28;20105;-70
2023/08/16 01:35:58;;;;;;;6.65;4.72;;;;;;;21.63;100.00;101108.13;4998287;28;20076;-67
2023/08/16 01:38:28;;;;;;;5.80;4.80;;;;;;;21.62;100.00;101114.50;5013191;28;20057;-67
2023/08/16 01:41:02;;;;;;;6.32;4.40;;;;;;;21.61;100.00;101107.41;5015891;28;20099;-65
2023/08/16 01:44:18;;;;;;;6.57;5.00;;;;;;;21.63;100.00;101118.00;5021622;28;20067;-66
2023/08/16 01:46:46;;;;;;;5.95;4.43;;;;;;;21.62;100.00;101111.81;4980380;28;20411;-66
2023/08/16 01:49:14;;;;;;;5.88;5.25;;;;;;;21.62;100.00;101114.50;5016944;28;20480;-66
2023/08/16 01:51:41;;;;;;;7.03;4.95;;;;;;;21.61;100.00;101112.78;4997508;28;20208;-67
2023/08/16 01:54:10;;;;;;;8.43;5.30;;;;;;;21.62;100.00;101117.16;5032168;28;20045;-66
2023/08/16 01:56:38;;;;;;;9.98;4.95;;;;;;;21.62;100.00;101127.03;5021361;28;20119;-67
2023/08/16 01:59:05;;;;;;;7.60;5.28;;;;;;;21.61;100.00;101128.00;5017081;28;20100;-69
2023/08/16 02:01:32;;;;;;;6.30;5.35;;;;;;;21.58;100.00;101131.03;4980020;28;20049;-67
2023/08/16 02:04:00;;;;;;;11.13;6.82;;;;;;;21.57;100.00;101131.97;5014734;28;20186;-65
2023/08/16 02:06:28;;;;;;;8.52;5.68;;;;;;;21.54;100.00;101133.16;5033780;28;20049;-68
2023/08/16 02:08:56;;;;;;;8.07;5.65;;;;;;;21.52;100.00;101126.25;4996802;28;20111;-67
2023/08/16 02:11:23;;;;;;;10.75;5.40;;;;;;;21.49;100.00;101122.88;5011734;28;20131;-66
2023/08/16 02:13:50;;;;;;;8.13;5.43;;;;;;;21.49;100.00;101128.25;5013883;28;20045;-66
2023/08/16 02:16:18;;;;;;;7.85;6.20;;;;;;;21.48;100.00;101115.84;5018863;28;20089;-68
2023/08/16 02:18:45;;;;;;;8.35;6.18;;;;;;;21.47;100.00;101119.50;5016914;28;20057;-65
2023/08/16 02:21:13;;;;;;;9.57;6.40;;;;;;;21.46;100.00;101116.97;4987477;28;20049;-67
2023/08/16 02:23:40;;;;;;;7.03;5.53;;;;;;;21.45;100.00;101118.81;5018008;28;20053;-68
2023/08/16 02:26:09;;;;;;;8.88;6.03;;;;;;;21.44;100.00;101119.81;5018657;28;20108;-68
2023/08/16 02:28:38;;;;;;;8.98;6.20;;;;;;;21.40;100.00;101117.56;5010730;28;20045;-68
2023/08/16 02:31:07;;;;;;;9.07;6.18;;;;;;;21.40;100.00;101123.78;4998664;28;20076;-68
2023/08/16 02:33:34;;;;;;;8.27;6.53;;;;;;;21.35;100.00;101109.97;5012740;28;20149;-68
2023/08/16 02:36:02;;;;;;;8.88;6.20;;;;;;;21.34;100.00;101112.78;5022901;28;20066;-68
2023/08/16 02:38:29;;;;;;;6.53;5.80;;;;;;;21.33;100.00;101111.09;5012063;28;20397;-67
2023/08/16 02:40:56;;;;;;;10.40;6.07;;;;;;;21.33;100.00;101119.16;5034208;28;20060;-68
2023/08/16 02:43:24;;;;;;;7.78;6.18;;;;;;;21.32;100.00;101118.31;4996216;28;20084;-67
2023/08/16 02:45:52;;;;;;;7.75;6.05;;;;;;;21.31;100.00;101119.31;5030298;28;20085;-72
2023/08/16 02:48:20;;;;;;;8.20;5.65;;;;;;;21.31;100.00;101113.06;5031645;28;20492;-67
2023/08/16 02:50:48;;;;;;;10.95;6.32;;;;;;;21.30;100.00;101117.59;5030553;28;20080;-69
2023/08/16 02:53:16;;;;;;;7.47;6.10;;;;;;;21.31;100.00;101127.34;4996568;28;20069;-68
2023/08/16 02:55:44;;;;;;;12.55;6.95;;;;;;;21.32;100.00;101128.19;5023070;28;20107;-68
2023/08/16 02:58:11;;;;;;;8.07;5.82;;;;;;;21.32;100.00;101130.84;5015355;28;20123;-66
2023/08/16 03:00:38;;;;;;;9.25;6.78;;;;;;;21.34;100.00;101128.88;5009927;28;20184;-72
2023/08/16 03:03:06;;;;;;;9.40;6.03;;;;;;;21.36;100.00;101132.25;4994269;28;20085;-68
2023/08/16 03:05:33;;;;;;;13.27;6.88;;;;;;;21.37;100.00;101132.09;5011499;28;20080;-67
2023/08/16 03:08:25;;;;;;;7.97;6.60;;;;;;;21.37;100.00;101125.91;5027233;28;20065;-69
2023/08/16 03:10:53;;;;;;;11.02;7.32;;;;;;;21.38;100.00;101130.25;5010562;28;20080;-70
2023/08/16 03:13:20;;;;;;;10.35;7.20;;;;;;;21.38;100.00;101138.28;4999044;28;20053;-67
2023/08/16 03:15:47;;;;;;;7.78;6.47;;;;;;;21.36;100.00;101141.13;5010403;28;20049;-68
2023/08/16 03:18:15;;;;;;;8.23;6.10;;;;;;;21.35;100.00;101136.75;5029599;28;20180;-71
2023/08/16 03:20:42;;;;;;;7.97;6.13;;;;;;;21.36;100.00;101145.63;5014305;28;20107;-65
2023/08/16 03:23:10;;;;;;;10.50;7.53;;;;;;;21.34;100.00;101142.25;4996180;28;20140;-65
2023/08/16 03:25:38;;;;;;;8.68;6.75;;;;;;;21.31;100.00;101143.41;5016102;28;20052;-66
2023/08/16 03:28:05;;;;;;;12.00;7.10;;;;;;;21.33;100.00;101144.09;5029204;28;20236;-68
2023/08/16 03:30:33;;;;;;;8.38;6.80;;;;;;;21.33;100.00;101140.56;4994645;28;20331;-67
2023/08/16 03:33:00;;;;;;;8.32;6.60;;;;;;;21.32;100.00;101145.09;4999785;28;20053;-67
2023/08/16 03:35:28;;;;;;;17.60;7.25;;;;;;;21.31;100.00;101153.25;5005094;28;20506;-65
2023/08/16 03:37:56;;;;;;;8.15;7.35;;;;;;;21.28;100.00;101151.69;5034334;28;20390;-67
2023/08/16 03:40:23;;;;;;;10.85;7.75;;;;;;;21.27;100.00;101166.09;5013328;28;20077;-66
2023/08/16 03:42:50;;;;;;;8.52;6.95;;;;;;;21.27;100.00;101165.25;5015430;28;20049;-67
2023/08/16 03:45:23;;;;;;;10.75;7.57;;;;;;;21.27;100.00;101157.22;4993709;28;20045;-67
2023/08/16 03:47:53;;;;;;;11.93;8.15;;;;;;;21.26;100.00;101158.19;4988112;28;1158161;-66
2023/08/16 03:50:21;;;;;;;9.88;7.32;;;;;;;21.24;100.00;101155.66;4998559;28;20524;-66
2023/08/16 03:52:48;;;;;;;11.07;6.93;;;;;;;21.24;100.00;101152.97;5012225;28;20456;-66
2023/08/16 03:55:16;;;;;;;7.88;6.72;;;;;;;21.25;100.00;101154.66;4992372;28;20055;-68
2023/08/16 03:57:43;;;;;;;12.57;7.20;;;;;;;21.27;100.00;101154.53;5013640;28;20450;-66
2023/08/16 04:00:11;;;;;;;11.05;7.13;;;;;;;21.29;100.00;101155.22;4995076;28;20510;-67
2023/08/16 04:02:39;;;;;;;8.88;7.97;;;;;;;21.28;100.00;101166.91;5028740;28;20416;-68
2023/08/16 04:05:11;;;;;;;11.77;7.55;;;;;;;21.29;100.00;101169.44;5001158;28;20061;-67
2023/08/16 04:07:40;;;;;;;13.00;8.93;;;;;;;21.29;100.00;101164.09;5031260;28;20108;-70
2023/08/16 04:10:08;;;;;;;9.73;7.82;;;;;;;21.29;100.00;101176.63;5013902;28;20487;-66
2023/08/16 04:12:35;;;;;;;11.88;7.45;;;;;;;21.29;100.00;101171.28;5014264;28;20089;-68
2023/08/16 04:15:03;;;;;;;10.02;7.47;;;;;;;21.31;100.00;101177.34;5004466;28;20069;-67
2023/08/16 04:17:31;;;;;;;9.93;7.47;;;;;;;21.34;100.00;101179.75;5011087;28;20077;-65
2023/08/16 04:19:58;;;;;;;9.07;7.78;;;;;;;21.34;100.00;101177.06;4998972;28;20108;-66
2023/08/16 04:22:25;;;;;;;9.88;7.95;;;;;;;21.33;100.00;101186.94;5010623;28;20049;-66
2023/08/16 04:24:52;;;;;;;11.90;8.25;;;;;;;21.35;100.00;101182.31;5014495;28;20122;-66
2023/08/16 04:27:20;;;;;;;12.73;8.48;;;;;;;21.36;100.00;101185.81;5034869;28;20097;-66
2023/08/16 04:29:48;;;;;;;11.43;8.18;;;;;;;21.37;100.00;101190.19;5005819;28;20119;-68
2023/08/16 04:32:15;;;;;;;10.75;8.27;;;;;;;21.36;100.00;101194.69;5013864;28;20061;-68
2023/08/16 04:34:42;;;;;;;11.38;8.55;;;;;;;21.37;100.00;101184.81;5019275;28;20056;-69
2023/08/16 04:37:10;;;;;;;15.82;8.63;;;;;;;21.37;100.00;101190.19;5011608;28;20048;-67
2023/08/16 04:39:37;;;;;;;9.50;8.48;;;;;;;21.34;100.00;101196.66;5011801;28;20050;-67
2023/08/16 04:42:04;;;;;;;9.75;8.10;;;;;;;21.34;100.00;101199.34;5017700;28;20073;-68
2023/08/16 04:44:32;;;;;;;10.63;8.68;;;;;;;21.35;100.00;101200.22;5016456;28;20088;-66
2023/08/16 04:47:00;;;;;;;12.95;8.68;;;;;;;21.34;100.00;101193.97;5027211;28;20093;-68
2023/08/16 04:49:29;;;;;;;12.50;9.18;;;;;;;21.39;100.00;101201.56;5010523;28;20061;-69
2023/08/16 04:51:56;;;;;;;11.18;8.57;;;;;;;21.41;100.00;101203.13;5014965;28;20057;-67
2023/08/16 04:54:24;;;;;;;12.18;8.32;;;;;;;21.44;100.00;101207.34;5015041;28;20054;-67
2023/08/16 04:56:52;;;;;;;11.80;8.30;;;;;;;21.45;100.00;101207.19;5017674;28;20053;-67
2023/08/16 04:59:19;;;;;;;14.80;8.43;;;;;;;21.47;100.00;101210.56;5001634;28;20256;-66
2023/08/16 05:01:48;;;;;;;9.30;7.93;;;;;;;21.52;100.00;101211.97;5013688;28;20045;-66
2023/08/16 05:04:16;;;;;;;10.40;7.85;;;;;;;21.56;100.00;101218.72;5034176;28;20053;-67
2023/08/16 05:06:43;;;;;;;10.27;8.98;;;;;;;21.60;100.00;101215.59;5037002;28;20133;-68
2023/08/16 05:09:11;;;;;;;11.00;8.00;;;;;;;21.61;100.00;101214.59;5008816;28;20088;-66
2023/08/16 05:11:38;;;;;;;11.35;8.00;;;;;;;21.65;100.00;101220.50;5032687;28;20080;-66
2023/08/16 05:14:07;;;;;;;8.80;7.65;;;;;;;21.70;100.00;101220.91;4995519;28;20049;-67
2023/08/16 05:16:34;;;;;;;12.45;8.85;;;;;;;21.78;100.00;101229.06;5013821;28;20069;-67
2023/08/16 05:19:02;;;;;;;12.52;8.40;;;;;;;21.80;100.00;101227.09;5012875;28;20115;-66
2023/08/16 05:22:20;;;;;;;11.77;8.05;;;;;;;21.87;100.00;101230.00;5032412;28;20128;-66
2023/08/16 05:25:11;;;;;;;11.10;8.70;;;;;;;21.90;100.00;101227.88;5029885;28;20159;-66
2023/08/16 05:27:39;;;;;;;10.85;7.65;;;;;;;21.98;100.00;101229.81;5010176;28;20049;-65
2023/08/16 05:30:07;;;;;;;9.27;7.35;;;;;;;22.03;100.00;101227.53;5027664;28;20085;-67
2023/08/16 05:32:34;;;;;;;8.45;7.47;;;;;;;22.08;100.00;101237.78;5005259;28;20104;-67
2023/08/16 05:35:02;;;;;;;12.25;8.93;;;;;;;22.11;100.00;101241.03;5019895;28;20085;-68
2023/08/16 05:37:29;;;;;;;11.35;7.25;;;;;;;22.22;100.00;101242.69;5010585;28;20152;-66
2023/08/16 05:39:56;;;;;;;12.20;7.20;;;;;;;22.33;100.00;101238.91;5023381;28;20068;-78
2023/08/16 05:42:26;;;;;;;13.50;8.05;;;;;;;22.31;100.00;101249.81;5029129;28;20057;-77
2023/08/16 05:44:53;;;;;;;11.82;7.97;;;;;;;22.32;100.00;101245.28;5031330;28;20593;-78
2023/08/16 05:47:20;;;;;;;13.27;8.65;;;;;;;22.36;100.00;101257.41;5008902;28;20564;-78
2023/08/16 05:50:13;;;;;;;17.73;9.27;;;;;;;22.34;100.00;101256.72;5004662;28;20140;-78
2023/08/16 05:52:41;;;;;;;9.20;7.72;;;;;;;22.36;100.00;101260.94;5030113;28;20085;-77
2023/08/16 05:55:08;;;;;;;10.85;7.97;;;;;;;22.30;100.00;101264.22;4997877;28;20456;-79
2023/08/16 05:57:36;;;;;;;8.90;7.38;;;;;;;22.29;100.00;101267.91;5015287;28;20103;-77
2023/08/16 06:00:04;;;;;;;12.30;7.88;;;;;;;22.30;100.00;101266.06;5028011;28;20689;-77
2023/08/16 06:02:32;;;;;;;9.68;7.68;;;;;;;22.27;100.00;101264.53;5024543;28;20149;-77
2023/08/16 06:05:00;;;;;;;11.65;8.70;;;;;;;22.27;100.00;101263.69;5012659;28;20053;-78
2023/08/16 06:07:27;;;;;;;11.57;7.53;;;;;;;22.23;100.00;101265.81;5012552;28;20104;-78
2023/08/16 06:09:55;;;;;;;11.07;8.90;;;;;;;22.28;100.00;101263.53;4983278;28;20052;-76
2023/08/16 06:12:23;;;;;;;9.00;7.90;;;;;;;;;;4994984;28;20145;-77
2023/08/16 06:14:50;;;;;;;11.82;8.82;;;;;;;22.42;100.00;101270.19;4996208;28;20064;-78
2023/08/16 06:17:18;;;;;;;10.88;8.35;;;;;;;22.45;100.00;101278.78;5015199;28;20076;-79
2023/08/16 06:19:45;;;;;;;11.73;9.80;;;;;;;22.50;100.00;101281.03;5005298;28;20385;-79
2023/08/16 06:22:12;;;;;;;13.23;9.23;;;;;;;22.52;100.00;101281.75;5017817;28;20057;-78
2023/08/16 06:24:40;;;;;;;14.25;9.60;;;;;;;22.52;100.00;101276.38;5037367;28;20072;-79
2023/08/16 06:27:08;;;;;;;11.55;8.98;;;;;;;22.63;100.00;101277.97;5014593;28;20107;-79
2023/08/16 06:29:36;;;;;;;10.68;7.53;;;;;;;22.77;100.00;101277.44;5014611;28;20108;-73
2023/08/16 06:32:04;;;;;;;9.27;7.22;;;;;;;22.96;100.00;101279.97;5014555;28;20448;-72
2023/08/16 06:34:31;;;;;;;11.23;7.97;;;;;;;23.12;100.00;101283.81;5002899;28;20053;-72
2023/08/16 06:36:58;;;;;;;14.70;7.40;;;;;;;23.19;100.00;101291.09;5017869;28;20057;-68
2023/08/16 06:39:26;;;;;;;12.77;6.78;;;;;;;23.22;100.00;101300.66;5032705;28;20093;-68
2023/08/16 06:42:03;;;;;;;11.98;7.45;;;;;;;23.24;100.00;101293.31;5020024;28;20136;-69
2023/08/16 06:44:30;;;;;;;10.38;6.65;;;;;;;23.30;100.00;101299.88;5021782;28;20111;-69
2023/08/16 06:46:58;;;;;;;8.35;6.40;;;;;;;23.39;100.00;101301.63;5023266;28;20046;-69
2023/08/16 06:49:25;;;;;;;11.88;6.93;;;;;;;23.50;100.00;101287.91;5029491;28;20107;-69
2023/08/16 06:51:52;;;;;;;9.70;6.50;;;;;;;23.59;100.00;101295.03;5037086;28;20111;-69
2023/08/16 06:54:20;;;;;;;9.13;5.95;;;;;;;23.73;99.83;101299.88;5014070;28;20099;-69
2023/08/16 06:56:47;;;;;;;9.88;6.40;;;;;;;23.90;98.77;101299.94;5025867;28;20151;-69
2023/08/16 06:59:14;;;;;;;10.13;6.00;;;;;;;24.18;96.18;101295.16;5035696;28;20042;-69
2023/08/16 07:01:42;;;;;;;8.07;5.78;;;;;;;24.47;95.48;101297.50;5005231;28;20138;-69
2023/08/16 07:04:09;;;;;;;13.88;6.35;;;;;;;24.64;93.33;101298.38;5009328;28;20055;-69
2023/08/16 07:06:37;;;;;;;9.02;6.18;;;;;;;24.67;90.72;101303.41;5029009;28;20065;-69
2023/08/16 07:09:04;;;;;;;11.18;6.03;;;;;;;24.65;89.74;101300.91;5033833;28;20531;-69
2023/08/16 07:11:32;;;;;;;9.50;5.40;;;;;;;24.66;89.31;101299.88;5030568;28;20119;-69
2023/08/16 07:14:00;;;;;;;8.65;5.20;;;;;;;24.72;90.01;101304.63;5018142;28;20141;-69
2023/08/16 07:16:27;;;;;;;9.48;6.28;;;;;;;24.73;87.89;101298.22;4998366;28;20089;-69
2023/08/16 07:18:55;;;;;;;10.38;5.63;;;;;;;24.74;88.93;101301.75;5030190;28;20053;-69
2023/08/16 07:21:22;;;;;;;10.85;5.95;;;;;;;24.78;88.38;101308.50;5032918;28;20124;-70
2023/08/16 07:23:50;;;;;;;10.45;5.68;;;;;;;24.66;88.07;101307.94;5010274;28;20088;-69
2023/08/16 07:26:17;;;;;;;7.63;5.22;;;;;;;24.63;87.62;101308.31;5011297;28;20053;-69
2023/08/16 07:28:45;;;;;;;8.38;5.35;;;;;;;24.48;88.10;101310.78;5038004;28;20053;-71
2023/08/16 07:31:12;;;;;;;8.85;6.03;;;;;;;24.58;88.38;101310.63;5031937;28;20037;-69
2023/08/16 07:33:40;;;;;;;12.57;5.25;;;;;;;24.72;87.70;101310.00;5033395;28;20128;-69
2023/08/16 07:36:07;;;;;;;10.02;5.75;;;;;;;24.81;87.59;101318.94;5016137;28;20119;-70
2023/08/16 07:38:35;;;;;;;11.98;5.55;;;;;;;24.93;87.36;101312.19;5041193;28;20081;-69
2023/08/16 07:41:02;;;;;;;8.98;5.68;;;;;;;25.07;86.91;101316.06;5014480;28;20066;-70
2023/08/16 07:43:29;;;;;;;10.70;5.50;;;;;;;25.29;85.78;101313.75;5015891;28;20138;-69
2023/08/16 07:45:57;;;;;;;8.95;5.78;;;;;;;25.52;84.95;101317.41;5032980;28;20155;-69
2023/08/16 07:48:24;;;;;;;10.05;4.93;;;;;;;25.73;83.25;101323.09;5027464;28;20107;-69
2023/08/16 07:50:51;;;;;;;7.00;4.75;;;;;;;25.84;80.98;101321.06;5009485;28;20053;-70
2023/08/16 07:53:19;;;;;;;8.77;5.32;;;;;;;25.85;80.97;101325.44;5034743;28;20143;-69
2023/08/16 07:55:46;;;;;;;9.13;5.20;;;;;;;25.95;80.73;101339.59;5029106;28;20338;-70
2023/08/16 07:58:15;;;;;;;10.10;5.53;;;;;;;26.09;80.43;101335.34;5027292;28;20492;-70
2023/08/16 08:00:48;;;;;;;8.20;4.80;;;;;;;26.23;80.41;101335.44;5015711;28;20253;-70
2023/08/16 08:03:15;;;;;;;8.30;5.10;;;;;;;26.42;78.72;101338.72;5029656;28;20073;-70
2023/08/16 08:05:43;;;;;;;7.40;5.13;;;;;;;26.58;78.51;101330.56;4990319;28;20084;-70
2023/08/16 08:08:11;;;;;;;7.43;4.65;;;;;;;26.71;77.68;101333.53;5011710;28;20111;-70
2023/08/16 08:10:43;;;;;;;8.05;5.15;;;;;;;26.86;77.28;101340.84;5012785;28;20045;-70
2023/08/16 08:13:11;;;;;;;6.45;4.50;;;;;;;26.93;75.38;101336.44;5012878;28;20049;-71
2023/08/16 08:15:39;;;;;;;6.47;4.43;;;;;;;26.86;74.77;101343.56;5027727;28;20558;-71
2023/08/16 08:18:08;;;;;;;7.57;4.25;;;;;;;26.96;73.95;101347.69;5009130;28;20136;-69
2023/08/16 08:20:38;;;;;;;7.28;4.28;;;;;;;26.89;72.66;101354.00;5017654;28;20046;-69
2023/08/16 08:23:06;;;;;;;7.85;4.05;;;;;;;26.62;72.19;101353.50;5024898;28;20520;-69
2023/08/16 08:25:34;;;;;;;6.75;3.78;;;;;;;26.47;73.47;101357.97;5007126;28;20083;-69
2023/08/16 08:28:03;;;;;;;7.82;4.22;;;;;;;26.36;73.88;101358.34;5006657;28;20053;-70
2023/08/16 08:30:30;;;;;;;5.15;3.70;;;;;;;26.36;74.81;101347.53;5006831;28;20160;-69
2023/08/16 08:32:58;;;;;;;8.73;4.38;;;;;;;26.43;74.75;101359.28;5024837;28;20050;-69
2023/08/16 08:35:26;;;;;;;7.28;3.95;;;;;;;26.31;74.21;101358.84;4988511;28;20049;-70
2023/08/16 08:37:53;;;;;;;7.32;4.07;;;;;;;26.38;74.60;101359.81;4994636;28;20061;-70
2023/08/16 08:40:20;;;;;;;5.60;3.88;;;;;;;26.63;74.30;101355.19;5021049;28;20053;-70
2023/08/16 08:42:49;;;;;;;6.82;3.90;;;;;;;26.74;73.76;101359.31;4987609;28;20545;-70
2023/08/16 08:45:17;;;;;;;5.57;3.33;;;;;;;26.89;72.81;101354.00;5006728;28;20115;-68
2023/08/16 08:47:44;;;;;;;8.43;4.07;;;;;;;27.05;71.19;101361.16;4990561;28;20222;-68
2023/08/16 08:50:12;;;;;;;6.28;4.13;;;;;;;27.10;70.71;101364.19;4999595;28;20622;-69
2023/08/16 08:52:41;;;;;;;4.97;3.53;;;;;;;26.93;69.17;101363.44;4990232;28;20084;-70
2023/08/16 08:55:08;;;;;;;3.75;3.35;;;;;;;26.88;70.02;101360.41;5005631;28;20156;-70
2023/08/16 08:57:36;;;;;;;4.75;3.35;;;;;;;27.08;70.07;101374.31;5023190;28;20076;-69
2023/08/16 09:00:04;;;;;;;5.80;3.50;;;;;;;27.25;69.96;101365.09;5021538;28;21601;-69
2023/08/16 09:02:33;;;;;;;6.05;3.80;;;;;;;27.43;70.04;101364.75;5006840;28;20612;-70
2023/08/16 09:05:05;;;;;;;5.10;3.25;;;;;;;27.55;69.18;101363.28;5000818;28;20542;-70
2023/08/16 09:07:33;;;;;;;4.47;3.20;;;;;;;27.59;68.96;101370.00;5021809;28;20118;-70
2023/08/16 09:10:00;;;;;;;7.32;3.85;;;;;;;27.64;69.04;101366.75;5006081;28;20057;-70
2023/08/16 09:12:28;;;;;;;5.15;3.58;;;;;;;27.67;68.29;101366.38;4989506;28;20504;-70
2023/08/16 09:14:55;;;;;;;4.22;3.58;;;;;;;27.70;68.04;101366.03;4988853;28;20060;-70
2023/08/16 09:17:23;;;;;;;5.80;3.95;;;;;;;27.73;67.94;101371.06;5005966;28;20061;-69
2023/08/16 09:19:51;;;;;;;11.65;3.55;;;;;;;27.69;67.91;101369.72;5003035;28;20177;-69
2023/08/16 09:22:18;;;;;;;6.30;3.17;;;;;;;27.50;67.59;101382.75;5023312;28;20492;-69
2023/08/16 09:24:45;;;;;;;5.90;3.50;;;;;;;27.38;67.24;101380.66;5023920;28;20294;-69
2023/08/16 09:27:13;;;;;;;5.85;3.85;;;;;;;27.22;68.58;101381.66;5004872;28;20161;-69
2023/08/16 09:29:40;;;;;;;6.50;3.25;;;;;;;27.04;69.30;101381.94;5005012;28;20057;-69
2023/08/16 09:32:09;;;;;;;4.38;3.22;;;;;;;26.88;69.81;101379.31;5006911;28;20108;-69
2023/08/16 09:34:43;;;;;;;5.15;3.35;;;;;;;26.73;70.43;101379.25;5002962;28;20064;-69
2023/08/16 09:37:15;;;;;;;5.05;3.45;;;;;;;26.63;70.42;101376.78;5005843;28;20065;-69
2023/08/16 09:39:42;;;;;;;4.40;3.40;;;;;;;26.55;71.37;101379.53;5008312;28;20080;-69
2023/08/16 09:42:12;;;;;;;6.53;3.25;;;;;;;26.79;70.85;101380.41;5025711;28;20622;-69
2023/08/16 09:44:42;;;;;;;4.65;3.58;;;;;;;27.11;69.61;101377.53;5025862;28;20089;-69
2023/08/16 09:47:13;;;;;;;4.55;3.10;;;;;;;27.37;69.31;101377.13;4974491;28;20049;-69
2023/08/16 09:49:45;;;;;;;4.28;2.85;;;;;;;27.65;67.17;101371.13;5021968;28;20072;-69
2023/08/16 09:52:13;;;;;;;4.28;2.83;;;;;;;27.82;65.80;101372.66;5011663;28;20045;-69
2023/08/16 09:54:40;;;;;;;3.63;2.70;;;;;;;27.94;64.91;101365.78;5026931;28;20088;-70
2023/08/16 09:57:08;;;;;;;3.85;2.85;;;;;;;28.13;64.22;101369.78;5009762;28;20077;-70
2023/08/16 09:59:38;;;;;;;3.28;2.70;;;;;;;28.20;61.90;101370.72;5011094;28;20441;-70
2023/08/16 10:02:13;;;;;;;4.10;2.67;;;;;;;28.26;62.09;101363.72;4993301;28;20084;-70
2023/08/16 10:04:41;;;;;;;3.35;2.50;;;;;;;28.35;62.15;101367.19;5009951;28;20148;-70
2023/08/16 10:07:11;;;;;;;6.03;2.90;;;;;;;28.43;61.90;101353.53;5027814;28;20136;-70
2023/08/16 10:09:41;;;;;;;3.65;2.85;;;;;;;28.49;61.96;101360.91;5030870;28;20049;-70
2023/08/16 10:12:10;;;;;;;3.88;2.65;;;;;;;28.58;61.39;101357.03;5030465;28;20069;-70
2023/08/16 10:14:38;;;;;;;3.65;2.80;;;;;;;28.60;62.02;101348.75;5010697;28;20045;-70
2023/08/16 10:17:08;;;;;;;8.30;2.90;;;;;;;28.59;60.33;101350.59;5008874;28;20041;-71
2023/08/16 10:19:39;;;;;;;5.03;2.80;;;;;;;28.58;61.10;101348.91;5012248;28;20596;-70
2023/08/16 10:22:19;;;;;;;6.95;3.00;;;;;;;28.63;61.37;101341.06;4996451;28;20076;-71
2023/08/16 10:25:23;;;;;;;4.05;2.90;;;;;;;28.62;60.71;101352.94;5011902;28;20088;-70
2023/08/16 10:27:52;;;;;;;5.78;3.45;;;;;;;28.69;60.51;101342.19;5013070;28;20490;-70
2023/08/16 10:30:23;;;;;;;5.72;3.25;;;;;;;28.74;60.34;101345.97;4991586;28;20492;-69
2023/08/16 10:33:13;;;;;;;7.35;2.88;;;;;;;28.82;61.62;101338.75;5027897;28;20109;-70
2023/08/16 10:35:41;;;;;;;7.38;3.25;;;;;;;28.99;61.52;101340.19;5026710;28;20146;-68
2023/08/16 10:38:08;;;;;;;6.38;2.97;;;;;;;28.91;60.31;101332.16;4997225;28;20298;-69
2023/08/16 10:40:35;;;;;;;6.75;2.90;;;;;;;28.93;60.42;101335.53;4993614;28;20145;-70
2023/08/16 10:43:07;;;;;;;4.32;2.80;;;;;;;29.10;60.02;101341.56;5009831;28;20124;-70
2023/08/16 10:45:35;;;;;;;7.13;3.58;;;;;;;29.15;59.43;101339.94;5009753;28;20139;-70
2023/08/16 10:48:15;;;;;;;6.90;2.95;;;;;;;29.29;59.14;101335.47;5026930;28;20183;-72
2023/08/16 10:50:44;;;;;;;4.57;2.85;;;;;;;29.33;58.99;101339.47;5009046;28;20195;-69
2023/08/16 10:53:12;;;;;;;5.70;3.08;;;;;;;29.27;58.09;101345.69;5011484;28;20128;-70
2023/08/16 10:55:40;;;;;;;6.75;2.50;;;;;;;29.11;58.26;101344.06;5012635;28;20654;-70
2023/08/16 10:58:23;;;;;;;4.15;2.67;;;;;;;29.06;56.76;101340.28;4992181;28;20068;-69
2023/08/16 11:00:58;;;;;;;3.08;2.70;;;;;;;29.22;56.67;101340.00;5027034;28;20148;-69
2023/08/16 11:03:40;;;;;;;4.90;2.88;;;;;;;29.53;57.68;101334.19;5010890;28;20053;-69
2023/08/16 11:06:08;;;;;;;7.60;3.17;;;;;;;29.47;54.81;101333.09;5006790;28;20085;-69
2023/08/16 11:08:47;;;;;;;4.95;3.17;;;;;;;29.51;55.12;101336.28;4994769;28;20854;-68
2023/08/16 11:11:14;;;;;;;4.45;2.95;;;;;;;29.75;56.21;101338.53;5028245;28;20452;-69
2023/08/16 11:13:42;;;;;;;4.55;3.00;;;;;;;30.12;55.93;101336.44;5007903;28;20077;-69
2023/08/16 11:16:13;;;;;;;4.45;2.90;;;;;;;30.45;54.89;101346.66;5007162;28;20053;-70
2023/08/16 11:18:41;;;;;;;3.60;2.42;;;;;;;30.73;53.59;101339.22;5010488;28;20115;-70
2023/08/16 11:21:16;;;;;;;4.20;3.00;;;;;;;31.05;53.72;101344.91;5025665;28;20511;-70
2023/08/16 11:23:43;;;;;;;5.47;2.73;;;;;;;31.24;51.34;101344.09;5001099;28;20156;-70
2023/08/16 11:26:11;;;;;;;5.13;3.03;;;;;;;31.27;51.37;101351.00;4990268;28;20111;-69
2023/08/16 11:28:40;;;;;;;4.15;3.08;;;;;;;31.58;51.51;101350.38;5020414;28;20049;-70